Quebec, Canada
Current Conditions -  °F | °C
As of 7:32 AM on Friday 24 Oct 2014 (Local Time) from CYQB Reporting Station
Broken Clouds Broken Clouds  
Wind Chill: 41°   Ceiling: 5400
Heat Index: 45°   Visibility: 30mi
Dew Point: 34°   Wind: 7mph
Humidity: 66%   Direction: 60°ENE
Pressure: 29.9"   Gusts: NA
Location:  46.81°N, 71.22°W
Report Text: CYQB 241132Z 06006KT 30SM FEW008 BKN054 BKN100 07/01 A2990 RMK ST1SC5AC2 ST TR SLP126
Loading
Personal Weather Stations






























Interactive Weather Map
Tropical Storm Tracking
New forecast layout! Learn more

10-Day Weather Forecast

Advertisements
Track Severe Weather on mobile